sensor_id;sensor_type;location;lat;lon;timestamp;pressure;altitude;pressure_sealevel;temperature;humidity
15932;BME280;8065;49.520;11.284;2023-08-31T00:01:18;96822.41;;;18.09;87.79
15932;BME280;8065;49.520;11.284;2023-08-31T00:03:49;96822.03;;;18.10;88.13
15932;BME280;8065;49.520;11.284;2023-08-31T00:06:17;96823.19;;;18.09;88.38
15932;BME280;8065;49.520;11.284;2023-08-31T00:08:47;96825.88;;;18.09;87.99
15932;BME280;8065;49.520;11.284;2023-08-31T00:11:15;96825.09;;;18.09;88.31
15932;BME280;8065;49.520;11.284;2023-08-31T00:13:43;96824.34;;;18.12;88.83
15932;BME280;8065;49.520;11.284;2023-08-31T00:16:12;96823.56;;;18.15;88.62
15932;BME280;8065;49.520;11.284;2023-08-31T00:18:40;96832.03;;;18.17;88.26
15932;BME280;8065;49.520;11.284;2023-08-31T00:21:13;96832.41;;;18.15;88.73
15932;BME280;8065;49.520;11.284;2023-08-31T00:23:41;96831.28;;;18.20;88.49
15932;BME280;8065;49.520;11.284;2023-08-31T00:26:09;96827.41;;;18.21;88.37
15932;BME280;8065;49.520;11.284;2023-08-31T00:28:37;96835.09;;;18.15;88.98
15932;BME280;8065;49.520;11.284;2023-08-31T00:31:07;96837.41;;;18.13;88.67
15932;BME280;8065;49.520;11.284;2023-08-31T00:33:38;96824.31;;;18.01;89.33
15932;BME280;8065;49.520;11.284;2023-08-31T00:36:06;96831.22;;;17.91;89.44
15932;BME280;8065;49.520;11.284;2023-08-31T00:38:37;96826.59;;;17.88;89.74
15932;BME280;8065;49.520;11.284;2023-08-31T00:41:05;96820.06;;;17.86;89.79
15932;BME280;8065;49.520;11.284;2023-08-31T00:43:34;96828.88;;;17.72;91.06
15932;BME280;8065;49.520;11.284;2023-08-31T00:46:03;96821.88;;;17.57;90.91
15932;BME280;8065;49.520;11.284;2023-08-31T00:48:32;96808.09;;;17.62;91.11
15932;BME280;8065;49.520;11.284;2023-08-31T00:51:01;96809.28;;;17.68;91.36
15932;BME280;8065;49.520;11.284;2023-08-31T00:53:30;96812.00;;;17.75;90.54
15932;BME280;8065;49.520;11.284;2023-08-31T00:56:01;96805.84;;;17.78;90.30
15932;BME280;8065;49.520;11.284;2023-08-31T00:58:31;96817.72;;;17.70;91.01
15932;BME280;8065;49.520;11.284;2023-08-31T01:01:05;96821.91;;;17.64;90.88
15932;BME280;8065;49.520;11.284;2023-08-31T01:03:42;96821.97;;;17.78;90.58
15932;BME280;8065;49.520;11.284;2023-08-31T01:06:15;96818.16;;;17.86;89.70
15932;BME280;8065;49.520;11.284;2023-08-31T01:08:59;96826.22;;;17.93;89.65
15932;BME280;8065;49.520;11.284;2023-08-31T01:11:45;96828.16;;;17.89;89.65
15932;BME280;8065;49.520;11.284;2023-08-31T01:14:19;96830.06;;;17.85;89.50
15932;BME280;8065;49.520;11.284;2023-08-31T01:16:53;96834.66;;;17.81;89.55
15932;BME280;8065;49.520;11.284;2023-08-31T01:19:31;96830.44;;;17.84;89.73
15932;BME280;8065;49.520;11.284;2023-08-31T01:22:07;96830.44;;;17.84;90.12
15932;BME280;8065;49.520;11.284;2023-08-31T01:24:40;96837.34;;;17.81;89.68
15932;BME280;8065;49.520;11.284;2023-08-31T01:27:09;96835.03;;;17.83;90.18
15932;BME280;8065;49.520;11.284;2023-08-31T01:29:38;96831.94;;;17.74;89.96
15932;BME280;8065;49.520;11.284;2023-08-31T01:32:07;96842.69;;;17.67;89.96
15932;BME280;8065;49.520;11.284;2023-08-31T01:34:35;96842.69;;;17.74;90.30
15932;BME280;8065;49.520;11.284;2023-08-31T01:37:13;96848.84;;;17.71;90.33
15932;BME280;8065;49.520;11.284;2023-08-31T01:39:50;96842.69;;;17.74;90.17
15932;BME280;8065;49.520;11.284;2023-08-31T01:42:21;96839.19;;;17.63;90.71
15932;BME280;8065;49.520;11.284;2023-08-31T01:44:51;96834.25;;;17.72;90.28
15932;BME280;8065;49.520;11.284;2023-08-31T01:47:21;96841.94;;;17.77;90.13
15932;BME280;8065;49.520;11.284;2023-08-31T01:49:50;96844.63;;;17.74;90.45
15932;BME280;8065;49.520;11.284;2023-08-31T01:52:19;96844.59;;;17.70;91.06
15932;BME280;8065;49.520;11.284;2023-08-31T01:54:50;96852.69;;;17.74;90.31
15932;BME280;8065;49.520;11.284;2023-08-31T01:57:18;96849.59;;;17.68;90.92
15932;BME280;8065;49.520;11.284;2023-08-31T01:59:46;96843.47;;;17.75;90.84
15932;BME280;8065;49.520;11.284;2023-08-31T02:02:14;96846.94;;;17.82;90.35
15932;BME280;8065;49.520;11.284;2023-08-31T02:04:43;96848.84;;;17.75;90.82
15932;BME280;8065;49.520;11.284;2023-08-31T02:07:11;96851.56;;;17.82;90.46
15932;BME280;8065;49.520;11.284;2023-08-31T02:09:40;96854.97;;;17.75;91.00
15932;BME280;8065;49.520;11.284;2023-08-31T02:12:11;96857.28;;;17.73;90.73
15932;BME280;8065;49.520;11.284;2023-08-31T02:14:39;96858.81;;;17.74;91.10
15932;BME280;8065;49.520;11.284;2023-08-31T02:17:07;96854.97;;;17.75;90.73
15932;BME280;8065;49.520;11.284;2023-08-31T02:19:36;96865.72;;;17.72;91.07
15932;BME280;8065;49.520;11.284;2023-08-31T02:22:04;96861.88;;;17.69;91.02
15932;BME280;8065;49.520;11.284;2023-08-31T02:24:32;96860.38;;;17.75;90.73
15932;BME280;8065;49.520;11.284;2023-08-31T02:27:00;96866.88;;;17.74;90.80
15932;BME280;8065;49.520;11.284;2023-08-31T02:29:31;96869.50;;;17.63;90.92
15932;BME280;8065;49.520;11.284;2023-08-31T02:32:00;96874.53;;;17.68;91.32
15932;BME280;8065;49.520;11.284;2023-08-31T02:34:28;96867.66;;;17.71;90.99
15932;BME280;8065;49.520;11.284;2023-08-31T02:36:56;96870.72;;;17.73;91.11
15932;BME280;8065;49.520;11.284;2023-08-31T02:39:24;96874.94;;;17.71;90.92
15932;BME280;8065;49.520;11.284;2023-08-31T02:41:53;96868.03;;;17.69;90.87
15932;BME280;8065;49.520;11.284;2023-08-31T02:44:21;96864.56;;;17.69;91.49
15932;BME280;8065;49.520;11.284;2023-08-31T02:46:52;96872.97;;;17.64;91.13
15932;BME280;8065;49.520;11.284;2023-08-31T02:49:21;96869.88;;;17.58;91.56
15932;BME280;8065;49.520;11.284;2023-08-31T02:51:49;96870.25;;;17.57;91.34
15932;BME280;8065;49.520;11.284;2023-08-31T02:54:17;96869.88;;;17.62;91.50
15932;BME280;8065;49.520;11.284;2023-08-31T02:56:46;96874.50;;;17.65;91.35
15932;BME280;8065;49.520;11.284;2023-08-31T02:59:15;96871.03;;;17.64;90.88
15932;BME280;8065;49.520;11.284;2023-08-31T03:01:44;96872.19;;;17.60;91.75
15932;BME280;8065;49.520;11.284;2023-08-31T03:04:15;96868.72;;;17.63;91.11
15932;BME280;8065;49.520;11.284;2023-08-31T03:06:44;96870.69;;;17.66;91.47
15932;BME280;8065;49.520;11.284;2023-08-31T03:09:12;96872.97;;;17.64;91.16
15932;BME280;8065;49.520;11.284;2023-08-31T03:11:41;96868.72;;;17.56;91.03
15932;BME280;8065;49.520;11.284;2023-08-31T03:14:09;96872.53;;;17.55;91.43
15932;BME280;8065;49.520;11.284;2023-08-31T03:16:37;96869.50;;;17.60;91.39
15932;BME280;8065;49.520;11.284;2023-08-31T03:19:06;96865.66;;;17.61;91.34
15932;BME280;8065;49.520;11.284;2023-08-31T03:21:36;96872.53;;;17.55;91.34
15932;BME280;8065;49.520;11.284;2023-08-31T03:24:05;96874.09;;;17.59;90.57
15932;BME280;8065;49.520;11.284;2023-08-31T03:26:34;96876.38;;;17.54;90.79
15932;BME280;8065;49.520;11.284;2023-08-31T03:29:02;96882.50;;;17.51;90.86
15932;BME280;8065;49.520;11.284;2023-08-31T03:31:30;96886.34;;;17.50;90.22
15932;BME280;8065;49.520;11.284;2023-08-31T03:33:59;96893.22;;;17.44;90.09
15932;BME280;8065;49.520;11.284;2023-08-31T03:36:27;96890.13;;;17.42;90.02
15932;BME280;8065;49.520;11.284;2023-08-31T03:38:58;96897.03;;;17.43;90.82
15932;BME280;8065;49.520;11.284;2023-08-31T03:41:26;96902.41;;;17.43;90.83
15932;BME280;8065;49.520;11.284;2023-08-31T03:43:54;96905.84;;;17.40;90.24
15932;BME280;8065;49.520;11.284;2023-08-31T03:46:23;96910.06;;;17.30;90.53
15932;BME280;8065;49.520;11.284;2023-08-31T03:48:52;96905.41;;;17.23;90.58
15932;BME280;8065;49.520;11.284;2023-08-31T03:51:20;96913.84;;;17.25;90.28
15932;BME280;8065;49.520;11.284;2023-08-31T03:53:48;96915.81;;;17.32;89.81
15932;BME280;8065;49.520;11.284;2023-08-31T03:56:19;96924.22;;;17.23;90.35
15932;BME280;8065;49.520;11.284;2023-08-31T03:58:47;96925.41;;;17.29;89.93
15932;BME280;8065;49.520;11.284;2023-08-31T04:01:16;96940.72;;;17.25;90.09
15932;BME280;8065;49.520;11.284;2023-08-31T04:03:44;96934.97;;;17.27;89.91
15932;BME280;8065;49.520;11.284;2023-08-31T04:06:12;96936.88;;;17.26;89.79
15932;BME280;8065;49.520;11.284;2023-08-31T04:08:41;96938.81;;;17.29;89.77
15932;BME280;8065;49.520;11.284;2023-08-31T04:11:09;96944.59;;;17.31;89.50
15932;BME280;8065;49.520;11.284;2023-08-31T04:13:40;96951.88;;;17.34;89.48
15932;BME280;8065;49.520;11.284;2023-08-31T04:16:09;96952.63;;;17.28;89.76
15932;BME280;8065;49.520;11.284;2023-08-31T04:18:37;96959.88;;;17.20;89.33
15932;BME280;8065;49.520;11.284;2023-08-31T04:21:05;96958.38;;;17.26;89.39
15932;BME280;8065;49.520;11.284;2023-08-31T04:23:34;96966.06;;;17.28;89.55
15932;BME280;8065;49.520;11.284;2023-08-31T04:26:09;96961.78;;;17.20;89.59
15932;BME280;8065;49.520;11.284;2023-08-31T04:28:41;96963.75;;;17.26;89.21
15932;BME280;8065;49.520;11.284;2023-08-31T04:31:09;96963.75;;;17.30;89.10
15932;BME280;8065;49.520;11.284;2023-08-31T04:33:38;96972.16;;;17.21;88.79
15932;BME280;8065;49.520;11.284;2023-08-31T04:36:07;96975.19;;;17.16;89.01
15932;BME280;8065;49.520;11.284;2023-08-31T04:38:35;96978.22;;;17.15;89.15
15932;BME280;8065;49.520;11.284;2023-08-31T04:41:03;96974.00;;;17.14;89.38
15932;BME280;8065;49.520;11.284;2023-08-31T04:43:32;96977.47;;;17.14;89.08
15932;BME280;8065;49.520;11.284;2023-08-31T04:46:02;96986.69;;;17.17;88.80
15932;BME280;8065;49.520;11.284;2023-08-31T04:48:31;96988.59;;;17.16;88.67
15932;BME280;8065;49.520;11.284;2023-08-31T04:50:59;96990.50;;;17.12;88.70
15932;BME280;8065;49.520;11.284;2023-08-31T04:53:29;96998.53;;;17.12;89.07
15932;BME280;8065;49.520;11.284;2023-08-31T04:55:58;97003.50;;;17.10;88.89
15932;BME280;8065;49.520;11.284;2023-08-31T04:58:26;97011.22;;;17.15;88.72
15932;BME280;8065;49.520;11.284;2023-08-31T05:00:55;97015.84;;;17.18;88.71
15932;BME280;8065;49.520;11.284;2023-08-31T05:03:25;97013.56;;;17.20;88.71
15932;BME280;8065;49.520;11.284;2023-08-31T05:05:54;97024.31;;;17.20;88.66
15932;BME280;8065;49.520;11.284;2023-08-31T05:08:22;97026.16;;;17.13;88.38
15932;BME280;8065;49.520;11.284;2023-08-31T05:10:50;97030.38;;;17.14;88.81
15932;BME280;8065;49.520;11.284;2023-08-31T05:13:18;97028.81;;;17.09;88.75
15932;BME280;8065;49.520;11.284;2023-08-31T05:15:47;97031.84;;;17.04;88.91
15932;BME280;8065;49.520;11.284;2023-08-31T05:18:15;97029.56;;;17.06;88.93
15932;BME280;8065;49.520;11.284;2023-08-31T05:20:47;97040.63;;;17.01;88.96
15932;BME280;8065;49.520;11.284;2023-08-31T05:23:15;97038.00;;;17.08;89.24
15932;BME280;8065;49.520;11.284;2023-08-31T05:25:44;97035.66;;;17.03;89.33
15932;BME280;8065;49.520;11.284;2023-08-31T05:28:12;97049.50;;;17.05;89.28
15932;BME280;8065;49.520;11.284;2023-08-31T05:30:47;97050.31;;;17.09;89.18
15932;BME280;8065;49.520;11.284;2023-08-31T05:33:17;97045.69;;;17.10;89.00
15932;BME280;8065;49.520;11.284;2023-08-31T05:35:50;97047.28;;;17.14;89.11
15932;BME280;8065;49.520;11.284;2023-08-31T05:38:18;97051.91;;;17.17;89.29
15932;BME280;8065;49.520;11.284;2023-08-31T05:40:46;97051.88;;;17.14;89.39
15932;BME280;8065;49.520;11.284;2023-08-31T05:43:15;97053.03;;;17.16;88.62
15932;BME280;8065;49.520;11.284;2023-08-31T05:45:43;97049.25;;;17.21;89.07
15932;BME280;8065;49.520;11.284;2023-08-31T05:48:12;97056.47;;;17.13;89.01
15932;BME280;8065;49.520;11.284;2023-08-31T05:50:41;97052.66;;;17.14;88.77
15932;BME280;8065;49.520;11.284;2023-08-31T05:53:12;97048.44;;;17.17;88.59
15932;BME280;8065;49.520;11.284;2023-08-31T05:55:40;97057.72;;;17.26;88.87
15932;BME280;8065;49.520;11.284;2023-08-31T05:58:08;97061.50;;;17.18;88.24
15932;BME280;8065;49.520;11.284;2023-08-31T06:00:36;97062.97;;;17.12;88.45
15932;BME280;8065;49.520;11.284;2023-08-31T06:03:05;97056.53;;;17.20;89.49
15932;BME280;8065;49.520;11.284;2023-08-31T06:05:34;97064.13;;;17.11;88.40
15932;BME280;8065;49.520;11.284;2023-08-31T06:08:04;97066.47;;;17.16;88.48
15932;BME280;8065;49.520;11.284;2023-08-31T06:10:35;97068.75;;;17.14;88.42
15932;BME280;8065;49.520;11.284;2023-08-31T06:13:03;97075.25;;;17.13;88.46
15932;BME280;8065;49.520;11.284;2023-08-31T06:15:32;97074.84;;;17.08;88.46
15932;BME280;8065;49.520;11.284;2023-08-31T06:18:00;97072.19;;;17.11;88.77
15932;BME280;8065;49.520;11.284;2023-08-31T06:20:28;97070.31;;;17.15;88.85
15932;BME280;8065;49.520;11.284;2023-08-31T06:22:57;97073.44;;;17.24;88.32
15932;BME280;8065;49.520;11.284;2023-08-31T06:25:25;97073.44;;;17.24;88.83
15932;BME280;8065;49.520;11.284;2023-08-31T06:27:56;97077.41;;;17.41;88.43
15932;BME280;8065;49.520;11.284;2023-08-31T06:30:24;97073.09;;;17.29;88.94
15932;BME280;8065;49.520;11.284;2023-08-31T06:32:53;97078.00;;;17.20;88.31
15932;BME280;8065;49.520;11.284;2023-08-31T06:35:21;97081.16;;;17.29;88.66
15932;BME280;8065;49.520;11.284;2023-08-31T06:37:49;97084.28;;;17.38;88.70
15932;BME280;8065;49.520;11.284;2023-08-31T06:40:18;97081.28;;;17.47;88.09
15932;BME280;8065;49.520;11.284;2023-08-31T06:42:46;97085.88;;;17.47;88.40
15932;BME280;8065;49.520;11.284;2023-08-31T06:45:17;97091.72;;;17.56;87.94
15932;BME280;8065;49.520;11.284;2023-08-31T06:47:45;97097.53;;;17.65;87.96
15932;BME280;8065;49.520;11.284;2023-08-31T06:50:14;97105.97;;;17.63;87.49
15932;BME280;8065;49.520;11.284;2023-08-31T06:52:42;97102.13;;;17.61;87.21
15932;BME280;8065;49.520;11.284;2023-08-31T06:55:12;97105.69;;;17.72;87.73
15932;BME280;8065;49.520;11.284;2023-08-31T06:57:40;97107.97;;;17.70;87.20
15932;BME280;8065;49.520;11.284;2023-08-31T07:00:10;97106.09;;;17.74;86.90
15932;BME280;8065;49.520;11.284;2023-08-31T07:02:42;97109.88;;;17.69;86.97
15932;BME280;8065;49.520;11.284;2023-08-31T07:05:11;97102.91;;;17.65;86.95
15932;BME280;8065;49.520;11.284;2023-08-31T07:07:39;97100.72;;;17.74;87.39
15932;BME280;8065;49.520;11.284;2023-08-31T07:10:08;97100.81;;;17.88;86.80
15932;BME280;8065;49.520;11.284;2023-08-31T07:12:36;97109.25;;;17.90;86.69
15932;BME280;8065;49.520;11.284;2023-08-31T07:15:05;97107.72;;;17.89;86.29
15932;BME280;8065;49.520;11.284;2023-08-31T07:17:34;97118.06;;;17.87;86.13
15932;BME280;8065;49.520;11.284;2023-08-31T07:20:06;97116.22;;;17.98;86.38
15932;BME280;8065;49.520;11.284;2023-08-31T07:22:35;97124.66;;;17.93;85.81
15932;BME280;8065;49.520;11.284;2023-08-31T07:25:04;97116.13;;;17.84;86.25
15932;BME280;8065;49.520;11.284;2023-08-31T07:27:33;97123.09;;;17.89;86.62
15932;BME280;8065;49.520;11.284;2023-08-31T07:30:02;97131.56;;;17.94;85.94
15932;BME280;8065;49.520;11.284;2023-08-31T07:32:32;97128.84;;;17.91;85.21
15932;BME280;8065;49.520;11.284;2023-08-31T07:35:00;97133.22;;;18.13;84.90
15932;BME280;8065;49.520;11.284;2023-08-31T07:37:32;97140.94;;;18.22;85.26
15932;BME280;8065;49.520;11.284;2023-08-31T07:40:03;97136.41;;;18.40;84.34
15932;BME280;8065;49.520;11.284;2023-08-31T07:42:33;97140.28;;;18.46;84.19
15932;BME280;8065;49.520;11.284;2023-08-31T07:45:02;97139.44;;;18.28;83.50
15932;BME280;8065;49.520;11.284;2023-08-31T07:47:31;97142.63;;;18.48;82.96
15932;BME280;8065;49.520;11.284;2023-08-31T07:49:59;97150.63;;;18.37;82.78
15932;BME280;8065;49.520;11.284;2023-08-31T07:52:27;97154.03;;;18.27;82.81
15932;BME280;8065;49.520;11.284;2023-08-31T07:54:59;97157.19;;;18.43;82.79
15932;BME280;8065;49.520;11.284;2023-08-31T07:57:29;97152.25;;;18.52;82.33
15932;BME280;8065;49.520;11.284;2023-08-31T07:59:57;97161.88;;;18.53;82.05
15932;BME280;8065;49.520;11.284;2023-08-31T08:02:25;97148.41;;;18.53;83.53
15932;BME280;8065;49.520;11.284;2023-08-31T08:04:53;97157.25;;;18.57;82.92
15932;BME280;8065;49.520;11.284;2023-08-31T08:07:22;97166.16;;;18.61;82.64
15932;BME280;8065;49.520;11.284;2023-08-31T08:09:50;97156.56;;;18.64;83.07
15932;BME280;8065;49.520;11.284;2023-08-31T08:12:21;97158.13;;;18.69;81.85
15932;BME280;8065;49.520;11.284;2023-08-31T08:14:50;97168.16;;;18.79;81.11
15932;BME280;8065;49.520;11.284;2023-08-31T08:17:18;97170.13;;;18.89;81.31
15932;BME280;8065;49.520;11.284;2023-08-31T08:19:46;97159.41;;;19.03;79.96
15932;BME280;8065;49.520;11.284;2023-08-31T08:22:15;97163.25;;;19.16;79.32
15932;BME280;8065;49.520;11.284;2023-08-31T08:24:43;97175.97;;;19.26;79.35
15932;BME280;8065;49.520;11.284;2023-08-31T08:27:11;97168.31;;;19.39;78.59
15932;BME280;8065;49.520;11.284;2023-08-31T08:29:42;97167.53;;;19.39;76.08
15932;BME280;8065;49.520;11.284;2023-08-31T08:32:10;97169.53;;;19.67;76.11
15932;BME280;8065;49.520;11.284;2023-08-31T08:34:39;97168.38;;;19.75;75.94
15932;BME280;8065;49.520;11.284;2023-08-31T08:37:07;97159.13;;;19.76;74.08
15932;BME280;8065;49.520;11.284;2023-08-31T08:39:35;97169.91;;;19.69;73.98
15932;BME280;8065;49.520;11.284;2023-08-31T08:42:04;97179.91;;;19.57;70.52
15932;BME280;8065;49.520;11.284;2023-08-31T08:44:35;97179.91;;;19.57;71.00
15932;BME280;8065;49.520;11.284;2023-08-31T08:47:07;97179.53;;;19.52;72.01
15932;BME280;8065;49.520;11.284;2023-08-31T08:49:36;97179.88;;;19.47;73.01
15932;BME280;8065;49.520;11.284;2023-08-31T08:52:04;97175.25;;;19.44;73.93
15932;BME280;8065;49.520;11.284;2023-08-31T08:54:34;97174.47;;;19.40;74.42
15932;BME280;8065;49.520;11.284;2023-08-31T08:57:03;97181.38;;;19.33;74.46
15932;BME280;8065;49.520;11.284;2023-08-31T08:59:32;97182.94;;;19.38;74.76
15932;BME280;8065;49.520;11.284;2023-08-31T09:02:00;97190.63;;;19.43;74.99
15932;BME280;8065;49.520;11.284;2023-08-31T09:04:32;97186.78;;;19.48;75.86
15932;BME280;8065;49.520;11.284;2023-08-31T09:07:00;97182.22;;;19.73;74.98
15932;BME280;8065;49.520;11.284;2023-08-31T09:09:28;97191.47;;;19.83;74.85
15932;BME280;8065;49.520;11.284;2023-08-31T09:12:06;97178.78;;;19.83;74.23
15932;BME280;8065;49.520;11.284;2023-08-31T09:14:34;97183.78;;;19.74;72.03
15932;BME280;8065;49.520;11.284;2023-08-31T09:17:03;97189.94;;;19.71;72.30
15932;BME280;8065;49.520;11.284;2023-08-31T09:19:34;97191.47;;;19.69;72.64
15932;BME280;8065;49.520;11.284;2023-08-31T09:22:03;97185.31;;;19.61;71.90
15932;BME280;8065;49.520;11.284;2023-08-31T09:24:40;97195.28;;;19.50;71.84
15932;BME280;8065;49.520;11.284;2023-08-31T09:27:10;97193.75;;;19.52;72.01
15932;BME280;8065;49.520;11.284;2023-08-31T09:29:44;97190.25;;;19.45;72.63
15932;BME280;8065;49.520;11.284;2023-08-31T09:32:16;97196.03;;;19.43;72.50
15932;BME280;8065;49.520;11.284;2023-08-31T09:34:47;97196.41;;;19.38;71.48
15932;BME280;8065;49.520;11.284;2023-08-31T09:37:16;97196.03;;;19.43;71.60
15932;BME280;8065;49.520;11.284;2023-08-31T09:39:44;97188.31;;;19.42;71.78
15932;BME280;8065;49.520;11.284;2023-08-31T09:42:12;97196.03;;;19.43;71.91
15932;BME280;8065;49.520;11.284;2023-08-31T09:44:43;97203.00;;;19.55;71.72
15932;BME280;8065;49.520;11.284;2023-08-31T09:47:13;97199.13;;;19.49;71.74
15932;BME280;8065;49.520;11.284;2023-08-31T09:49:42;97201.50;;;19.68;70.30
15932;BME280;8065;49.520;11.284;2023-08-31T09:52:14;97204.94;;;20.08;68.85
15932;BME280;8065;49.520;11.284;2023-08-31T09:54:43;97199.94;;;20.38;68.06
15932;BME280;8065;49.520;11.284;2023-08-31T09:57:12;97189.81;;;20.67;67.29
15932;BME280;8065;49.520;11.284;2023-08-31T09:59:42;97194.47;;;20.63;65.08
15932;BME280;8065;49.520;11.284;2023-08-31T10:02:13;97196.03;;;20.57;64.27
15932;BME280;8065;49.520;11.284;2023-08-31T10:04:42;97191.41;;;20.47;64.25
15932;BME280;8065;49.520;11.284;2023-08-31T10:07:15;97186.78;;;20.33;63.72
15932;BME280;8065;49.520;11.284;2023-08-31T10:09:44;97196.06;;;20.43;64.10
15932;BME280;8065;49.520;11.284;2023-08-31T10:12:14;97200.69;;;20.39;64.33
15932;BME280;8065;49.520;11.284;2023-08-31T10:14:42;97196.81;;;20.43;64.95
15932;BME280;8065;49.520;11.284;2023-08-31T10:17:11;97207.22;;;20.34;63.46
15932;BME280;8065;49.520;11.284;2023-08-31T10:19:40;97204.53;;;20.27;61.21
15932;BME280;8065;49.520;11.284;2023-08-31T10:22:08;97205.31;;;20.35;62.10
15932;BME280;8065;49.520;11.284;2023-08-31T10:25:01;97199.13;;;20.34;62.41
15932;BME280;8065;49.520;11.284;2023-08-31T10:27:36;97204.53;;;20.41;62.34
15932;BME280;8065;49.520;11.284;2023-08-31T10:30:28;97203.78;;;20.41;61.99
15932;BME280;8065;49.520;11.284;2023-08-31T10:33:21;97207.22;;;20.48;61.37
15932;BME280;8065;49.520;11.284;2023-08-31T10:35:53;97199.13;;;20.55;61.99
15932;BME280;8065;49.520;11.284;2023-08-31T10:38:27;97211.84;;;20.58;61.42
15932;BME280;8065;49.520;11.284;2023-08-31T10:41:21;97212.59;;;20.63;62.82
15932;BME280;8065;49.520;11.284;2023-08-31T10:43:52;97206.44;;;20.62;64.51
15932;BME280;8065;49.520;11.284;2023-08-31T10:46:31;97209.13;;;20.62;64.48
15932;BME280;8065;49.520;11.284;2023-08-31T10:49:00;97207.19;;;20.63;64.45
15932;BME280;8065;49.520;11.284;2023-08-31T10:51:30;97203.75;;;20.55;63.67
15932;BME280;8065;49.520;11.284;2023-08-31T10:54:09;97209.91;;;20.59;63.93
15932;BME280;8065;49.520;11.284;2023-08-31T10:56:52;97210.69;;;20.52;62.10
15932;BME280;8065;49.520;11.284;2023-08-31T10:59:21;97207.59;;;20.57;61.03
15932;BME280;8065;49.520;11.284;2023-08-31T11:01:56;97208.75;;;20.60;60.70
15932;BME280;8065;49.520;11.284;2023-08-31T11:04:28;97202.94;;;20.65;61.42
15932;BME280;8065;49.520;11.284;2023-08-31T11:07:13;97196.38;;;20.73;62.00
15932;BME280;8065;49.520;11.284;2023-08-31T11:09:43;97199.00;;;20.84;62.40
15932;BME280;8065;49.520;11.284;2023-08-31T11:12:14;97201.91;;;21.29;61.63
15932;BME280;8065;49.520;11.284;2023-08-31T11:14:43;97209.94;;;21.43;61.26
15932;BME280;8065;49.520;11.284;2023-08-31T11:17:11;97200.72;;;21.33;60.98
15932;BME280;8065;49.520;11.284;2023-08-31T11:19:41;97202.59;;;21.47;60.70
15932;BME280;8065;49.520;11.284;2023-08-31T11:22:10;97202.63;;;21.40;58.50
15932;BME280;8065;49.520;11.284;2023-08-31T11:24:38;97206.47;;;21.46;58.24
15932;BME280;8065;49.520;11.284;2023-08-31T11:27:09;97195.41;;;21.15;56.83
15932;BME280;8065;49.520;11.284;2023-08-31T11:29:43;97212.75;;;21.21;57.79
15932;BME280;8065;49.520;11.284;2023-08-31T11:32:12;97209.69;;;21.16;59.02
15932;BME280;8065;49.520;11.284;2023-08-31T11:34:40;97214.22;;;21.37;59.01
15932;BME280;8065;49.520;11.284;2023-08-31T11:37:11;97209.06;;;21.60;58.12
15932;BME280;8065;49.520;11.284;2023-08-31T11:39:41;97208.31;;;21.59;57.90
15932;BME280;8065;49.520;11.284;2023-08-31T11:42:10;97210.97;;;21.63;58.08
15932;BME280;8065;49.520;11.284;2023-08-31T11:44:41;97209.88;;;21.57;58.96
15932;BME280;8065;49.520;11.284;2023-08-31T11:47:10;97211.44;;;21.51;57.86
15932;BME280;8065;49.520;11.284;2023-08-31T11:49:39;97205.78;;;21.27;56.35
15932;BME280;8065;49.520;11.284;2023-08-31T11:52:09;97218.50;;;21.31;57.71
15932;BME280;8065;49.520;11.284;2023-08-31T11:54:38;97219.59;;;21.47;56.60
15932;BME280;8065;49.520;11.284;2023-08-31T11:57:08;97228.78;;;21.57;56.57
15932;BME280;8065;49.520;11.284;2023-08-31T11:59:37;97217.19;;;21.60;56.40
15932;BME280;8065;49.520;11.284;2023-08-31T12:02:09;97213.97;;;21.72;57.20
15932;BME280;8065;49.520;11.284;2023-08-31T12:04:44;97225.19;;;21.74;57.43
15932;BME280;8065;49.520;11.284;2023-08-31T12:07:16;97217.94;;;21.64;56.89
15932;BME280;8065;49.520;11.284;2023-08-31T12:09:45;97217.19;;;21.60;56.50
15932;BME280;8065;49.520;11.284;2023-08-31T12:12:13;97221.09;;;21.52;56.52
15932;BME280;8065;49.520;11.284;2023-08-31T12:14:43;97222.97;;;21.62;57.66
15932;BME280;8065;49.520;11.284;2023-08-31T12:17:18;97220.63;;;21.64;57.40
15932;BME280;8065;49.520;11.284;2023-08-31T12:19:47;97231.38;;;21.71;56.88
15932;BME280;8065;49.520;11.284;2023-08-31T12:22:15;97223.25;;;21.75;56.32
15932;BME280;8065;49.520;11.284;2023-08-31T12:24:43;97229.00;;;21.80;56.94
15932;BME280;8065;49.520;11.284;2023-08-31T12:27:12;97230.13;;;21.86;56.98
15932;BME280;8065;49.520;11.284;2023-08-31T12:29:40;97225.56;;;21.76;57.11
15932;BME280;8065;49.520;11.284;2023-08-31T12:32:08;97222.75;;;21.90;57.00
15932;BME280;8065;49.520;11.284;2023-08-31T12:34:39;97229.28;;;21.97;57.30
15932;BME280;8065;49.520;11.284;2023-08-31T12:37:08;97216.13;;;22.02;57.10
15932;BME280;8065;49.520;11.284;2023-08-31T12:39:36;97215.72;;;22.00;56.65
15932;BME280;8065;49.520;11.284;2023-08-31T12:42:04;97210.56;;;22.20;56.38
15932;BME280;8065;49.520;11.284;2023-08-31T12:44:33;97214.72;;;22.28;56.56
15932;BME280;8065;49.520;11.284;2023-08-31T12:47:03;97214.19;;;22.44;56.92
15932;BME280;8065;49.520;11.284;2023-08-31T12:49:31;97222.88;;;22.62;56.56
15932;BME280;8065;49.520;11.284;2023-08-31T12:52:02;97220.94;;;22.63;56.14
15932;BME280;8065;49.520;11.284;2023-08-31T12:54:33;97222.56;;;22.56;56.68
15932;BME280;8065;49.520;11.284;2023-08-31T12:57:02;97226.25;;;22.73;56.34
15932;BME280;8065;49.520;11.284;2023-08-31T12:59:30;97228.78;;;22.91;55.46
15932;BME280;8065;49.520;11.284;2023-08-31T13:01:58;97219.56;;;22.85;53.86
15932;BME280;8065;49.520;11.284;2023-08-31T13:04:29;97229.16;;;22.93;53.42
15932;BME280;8065;49.520;11.284;2023-08-31T13:06:57;97232.19;;;22.99;52.99
15932;BME280;8065;49.520;11.284;2023-08-31T13:09:28;97235.31;;;22.97;52.38
15932;BME280;8065;49.520;11.284;2023-08-31T13:11:56;97230.91;;;22.73;51.49
15932;BME280;8065;49.520;11.284;2023-08-31T13:14:24;97238.81;;;22.94;52.22